Aviation Digital Data Service (ADDS)

Output produced by METARs form (0220 UTC 21 September 2021)
found at http://aviationweather.gov/metar/data/
 
WADD 210200Z 10008KT 9999 FEW016 29/26 Q1012 NOSIG
WADD 210130Z 10008KT 9999 SCT017 28/26 Q1012 NOSIG
WADD 210100Z 09010KT 9999 SCT016 28/26 Q1012 NOSIG
WADD 210030Z 10008KT 9999 SCT016 28/26 Q1012 NOSIG
WADD 210000Z 10008KT 9999 BKN015 27/26 Q1012 NOSIG
WADD 202330Z 10004KT 9999 SCT016 27/26 Q1011 NOSIG
TAF WADD 202300Z 2100/2200 12012KT 9999 SCT016 
     TEMPO 2120/2200 VRB06KT